createdAt,value
2018-06-25T02:05:58.629Z,3
2018-06-25T02:16:00.901Z,7
2018-06-25T02:19:31.087Z,10
2018-06-25T02:22:01.599Z,13
2018-06-25T02:24:01.906Z,17
2018-06-25T02:25:32.124Z,20
2018-06-25T02:26:32.348Z,23
2018-06-25T02:27:32.503Z,27
2018-06-25T02:28:32.653Z,30
2018-06-25T02:29:02.808Z,33
2018-06-25T02:30:03.018Z,37
2018-06-25T02:31:03.230Z,40
2018-06-25T02:31:33.227Z,43
2018-06-25T02:32:33.449Z,47
2018-06-25T02:33:33.616Z,50
2018-06-25T02:34:03.804Z,53
2018-06-25T02:35:03.982Z,57
2018-06-25T02:35:34.007Z,60
2018-06-25T02:36:34.208Z,63
2018-06-25T02:37:04.347Z,67
2018-06-25T02:37:34.403Z,70
2018-06-25T02:38:34.588Z,73
2018-06-25T02:39:04.641Z,80
2018-06-25T02:39:34.668Z,83
2018-06-25T02:40:04.837Z,87
2018-06-25T02:40:34.861Z,93
2018-06-25T02:41:05.094Z,97
2018-06-25T02:41:35.044Z,100
2018-06-25T02:42:05.259Z,107
2018-06-25T02:42:35.278Z,110
2018-06-25T02:43:05.441Z,113
2018-06-25T02:43:35.464Z,117
2018-06-25T02:44:05.603Z,120
2018-06-25T02:44:35.601Z,127
2018-06-25T02:45:35.823Z,130
2018-06-25T02:46:05.980Z,133
2018-06-25T02:46:36.028Z,137
2018-06-25T02:47:06.151Z,140
2018-06-25T02:47:36.221Z,143
2018-06-25T02:48:06.405Z,147
2018-06-25T02:48:36.443Z,153
2018-06-25T02:49:06.565Z,160
2018-06-25T02:49:36.611Z,163
2018-06-25T02:50:06.736Z,173
2018-06-25T02:50:36.757Z,180
2018-06-25T02:51:06.995Z,187
2018-06-25T02:51:36.982Z,193
2018-06-25T02:52:07.157Z,197
2018-06-25T02:52:37.152Z,203
2018-06-25T02:53:07.341Z,210
2018-06-25T02:53:37.343Z,213
2018-06-25T02:54:37.473Z,217
2018-06-25T02:55:07.651Z,220
2018-06-25T02:55:37.711Z,227
2018-06-25T02:56:07.855Z,230
2018-06-25T02:56:37.885Z,233
2018-06-25T02:57:08.013Z,237
2018-06-25T02:57:38.045Z,243
2018-06-25T02:58:08.268Z,250
2018-06-25T02:58:38.270Z,253
2018-06-25T02:59:08.479Z,260
2018-06-25T02:59:38.437Z,263
2018-06-25T03:00:08.581Z,267
2018-06-25T03:00:38.602Z,273
2018-06-25T03:01:08.987Z,280
2018-06-25T03:01:38.794Z,287
2018-06-25T03:02:08.960Z,293
2018-06-25T03:02:38.987Z,300
2018-06-25T03:03:09.132Z,310
2018-06-25T03:03:39.164Z,320
2018-06-25T03:04:09.352Z,330
2018-06-25T03:04:39.379Z,340
2018-06-25T03:05:09.531Z,350
2018-06-25T03:05:39.582Z,360
2018-06-25T03:06:09.819Z,373
2018-06-25T03:06:39.796Z,383
2018-06-25T03:07:09.982Z,397
2018-06-25T03:07:40.094Z,407
2018-06-25T03:08:10.151Z,423
2018-06-25T03:08:40.224Z,443
2018-06-25T03:09:10.393Z,473
2018-06-25T03:09:40.376Z,497
2018-06-25T03:10:10.573Z,520
2018-06-25T03:10:40.567Z,533
2018-06-25T03:11:10.721Z,547
2018-06-25T03:11:40.736Z,557
2018-06-25T03:12:10.887Z,563
2018-06-25T03:12:40.898Z,567
2018-06-25T03:13:11.079Z,570
2018-06-25T03:14:41.400Z,573
2018-06-25T03:15:11.493Z,590
2018-06-25T03:15:41.496Z,607
2018-06-25T03:16:11.728Z,620
2018-06-25T03:16:41.691Z,633
2018-06-25T03:17:41.864Z,640
2018-06-25T03:18:12.029Z,657
2018-06-25T03:18:42.081Z,690
2018-06-25T03:19:12.235Z,723
2018-06-25T03:19:42.316Z,750
2018-06-25T03:20:12.388Z,783
2018-06-25T03:20:42.450Z,797
2018-06-25T03:21:12.672Z,823
2018-06-25T03:21:42.667Z,847
2018-06-25T03:22:12.827Z,873
2018-06-25T03:22:42.829Z,923
2018-06-25T03:23:13.021Z,987
2018-06-25T03:23:43.021Z,1037
2018-06-25T03:24:13.255Z,1067
2018-06-25T03:24:43.267Z,1057
2018-06-25T03:25:13.441Z,1067
2018-06-25T03:25:43.461Z,1097
2018-06-25T03:26:13.628Z,1113
2018-06-25T03:26:43.608Z,1090
2018-06-25T03:27:13.718Z,1073
2018-06-25T03:27:43.786Z,1093
2018-06-25T03:28:13.921Z,1177
2018-06-25T03:28:43.936Z,1280
2018-06-25T03:29:14.181Z,1333
2018-06-25T03:29:44.128Z,1303
2018-06-25T03:30:14.281Z,1280
2018-06-25T03:30:44.357Z,1307
2018-06-25T03:31:14.581Z,1363
2018-06-25T03:31:44.522Z,1423
2018-06-25T03:32:14.682Z,1460
2018-06-25T03:32:44.691Z,1467
2018-06-25T03:33:14.846Z,1513
2018-06-25T03:33:44.868Z,1640
2018-06-25T03:34:15.029Z,1787
2018-06-25T03:34:45.125Z,1883
2018-06-25T03:35:15.270Z,1903
2018-06-25T03:35:45.289Z,1947
2018-06-25T03:36:15.475Z,2003
2018-06-25T03:36:45.433Z,2057
2018-06-25T03:37:15.590Z,2113
2018-06-25T03:37:45.616Z,2143
2018-06-25T03:38:45.863Z,2063
2018-06-25T03:39:16.020Z,1957
2018-06-25T03:39:46.005Z,2017
2018-06-25T03:40:16.148Z,2157
2018-06-25T03:40:46.244Z,2280
2018-06-25T03:41:16.371Z,2353
2018-06-25T03:41:46.350Z,2347
2018-06-25T03:42:16.535Z,2343
2018-06-25T03:42:46.541Z,2387
2018-06-25T03:43:16.722Z,2407
2018-06-25T03:43:46.709Z,2303
2018-06-25T03:44:16.876Z,2277
2018-06-25T03:44:46.887Z,2223
2018-06-25T03:45:17.144Z,2153
2018-06-25T03:45:47.072Z,2187
2018-06-25T03:46:17.263Z,2310
2018-06-25T03:46:47.235Z,2513
2018-06-25T03:47:17.439Z,2627
2018-06-25T03:47:47.444Z,2757
2018-06-25T03:48:17.572Z,2787
2018-06-25T03:48:47.656Z,2827
2018-06-25T03:49:17.769Z,2863
2018-06-25T03:49:47.795Z,2950
2018-06-25T03:50:17.951Z,3173
2018-06-25T03:50:47.967Z,3223
2018-06-25T03:51:18.149Z,3190
2018-06-25T03:51:48.147Z,3210
2018-06-25T03:52:18.349Z,3253
2018-06-25T03:52:48.385Z,3257
2018-06-25T03:53:18.512Z,3260
2018-06-25T03:53:48.539Z,3317
2018-06-25T03:54:18.701Z,3467
2018-06-25T03:54:48.773Z,3530
2018-06-25T03:55:18.900Z,3613
2018-06-25T03:55:48.910Z,3700
2018-06-25T03:56:19.068Z,3870
2018-06-25T03:56:49.088Z,4163
2018-06-25T03:57:19.274Z,4253
2018-06-25T03:57:49.312Z,4043
2018-06-25T03:58:19.429Z,4260
2018-06-25T03:58:49.475Z,4090
2018-06-25T03:59:19.564Z,4077
2018-06-25T03:59:49.601Z,4340
2018-06-25T04:00:19.735Z,4570
2018-06-25T04:00:49.761Z,4727
2018-06-25T04:01:19.917Z,4853
2018-06-25T04:01:49.945Z,4880
2018-06-25T04:02:20.156Z,5107
2018-06-25T04:02:50.135Z,5173
2018-06-25T04:03:20.332Z,5153
2018-06-25T04:03:50.352Z,5093
2018-06-25T04:04:20.556Z,5100
2018-06-25T04:04:50.574Z,5107
2018-06-25T04:05:20.750Z,5120
2018-06-25T04:05:50.749Z,5173
2018-06-25T04:06:20.897Z,5237
2018-06-25T04:06:50.918Z,5270
2018-06-25T04:07:21.144Z,5250
2018-06-25T04:07:51.153Z,5177
2018-06-25T04:08:21.288Z,5043
2018-06-25T04:08:51.281Z,4987
2018-06-25T04:09:21.452Z,5050
2018-06-25T04:09:51.518Z,5120
2018-06-25T04:10:21.663Z,5220
2018-06-25T04:10:51.683Z,5327
2018-06-25T04:11:21.882Z,5497
2018-06-25T04:11:51.873Z,5677
2018-06-25T04:12:22.036Z,5857
2018-06-25T04:12:52.052Z,5993
2018-06-25T04:13:22.204Z,6093
2018-06-25T04:13:52.230Z,6110
2018-06-25T04:14:22.408Z,6060
2018-06-25T04:14:52.460Z,5967
2018-06-25T04:15:22.592Z,5907
2018-06-25T04:15:52.599Z,5890
2018-06-25T04:16:22.719Z,5940
2018-06-25T04:16:52.769Z,6020
2018-06-25T04:17:22.910Z,6100
2018-06-25T04:17:52.933Z,6160
2018-06-25T04:18:23.077Z,6183
2018-06-25T04:18:53.105Z,6210
2018-06-25T04:19:23.277Z,6290
2018-06-25T04:19:53.335Z,6367
2018-06-25T04:20:23.495Z,6457
2018-06-25T04:20:53.491Z,6580
2018-06-25T04:21:23.648Z,6733
2018-06-25T04:21:53.661Z,6917
2018-06-25T04:22:23.827Z,7093
2018-06-25T04:22:53.851Z,7220
2018-06-25T04:23:23.987Z,7320
2018-06-25T04:23:54.025Z,7353
2018-06-25T04:24:24.172Z,7363
2018-06-25T04:24:54.234Z,7377
2018-06-25T04:25:24.464Z,7403
2018-06-25T04:25:54.539Z,7443
2018-06-25T04:26:24.568Z,7487
2018-06-25T04:26:54.619Z,7540
2018-06-25T04:27:24.797Z,7633
2018-06-25T04:27:54.803Z,7700
2018-06-25T04:28:25.028Z,7807
2018-06-25T04:28:54.970Z,7880
2018-06-25T04:29:25.236Z,7550
2018-06-25T04:29:55.166Z,8090
2018-06-25T04:30:25.337Z,8377
2018-06-25T04:30:55.350Z,8597
2018-06-25T04:31:25.501Z,8873
2018-06-25T04:31:55.558Z,9187
2018-06-25T04:32:25.791Z,9523
2018-06-25T04:32:55.693Z,9903
2018-06-25T04:33:25.922Z,10230
2018-06-25T04:33:55.859Z,10440
2018-06-25T04:34:26.079Z,10500
2018-06-25T04:34:56.050Z,10357
2018-06-25T04:35:26.321Z,10233
2018-06-25T04:35:56.280Z,10230
2018-06-25T04:36:26.487Z,10337
2018-06-25T04:36:56.516Z,10577
2018-06-25T04:37:26.709Z,10867
2018-06-25T04:37:56.695Z,11243
2018-06-25T04:38:26.863Z,11627
2018-06-25T04:38:56.842Z,11730
2018-06-25T04:39:27.016Z,11590
2018-06-25T04:39:57.014Z,11437
2018-06-25T04:40:27.189Z,11473
2018-06-25T04:40:57.197Z,11530
2018-06-25T04:41:27.341Z,11643
2018-06-25T04:41:57.406Z,11760
2018-06-25T04:42:27.567Z,11940
2018-06-25T04:42:57.629Z,12153
2018-06-25T04:43:27.699Z,12337
2018-06-25T04:43:57.780Z,12393
2018-06-25T04:44:27.885Z,12347
2018-06-25T04:44:57.968Z,12190
2018-06-25T04:45:28.098Z,12093
2018-06-25T04:45:58.201Z,12167
2018-06-25T04:46:28.338Z,12340
2018-06-25T04:46:58.303Z,12550
2018-06-25T04:47:28.512Z,12670
2018-06-25T04:47:59.179Z,12693
2018-06-25T04:48:29.294Z,12707
2018-06-25T04:48:59.320Z,12547
2018-06-25T04:49:29.492Z,12237
2018-06-25T04:49:59.535Z,11963
2018-06-25T04:50:29.998Z,11753
2018-06-25T04:50:59.696Z,11720
2018-06-25T04:51:29.859Z,11890
2018-06-25T04:51:59.902Z,12230
2018-06-25T04:52:30.050Z,12637
2018-06-25T04:53:00.108Z,12890
2018-06-25T04:53:30.237Z,13043
2018-06-25T04:54:01.384Z,13190
2018-06-25T04:54:30.445Z,13287
2018-06-25T04:55:01.369Z,13393
2018-06-25T04:55:30.666Z,13523
2018-06-25T04:56:02.069Z,13600
2018-06-25T04:56:30.871Z,13687
2018-06-25T04:57:01.466Z,13763
2018-06-25T04:57:31.076Z,13830
2018-06-25T04:58:01.000Z,13913
2018-06-25T04:58:31.281Z,13997
2018-06-25T04:59:01.548Z,14100
2018-06-25T04:59:31.469Z,14133
2018-06-25T05:00:02.080Z,14263
2018-06-25T05:00:31.644Z,14457
2018-06-25T05:01:01.589Z,14580
2018-06-25T05:01:31.789Z,14510
2018-06-25T05:02:01.798Z,14260
2018-06-25T05:02:31.988Z,13980
2018-06-25T05:03:02.015Z,13777
2018-06-25T05:03:32.128Z,13817
2018-06-25T05:04:02.202Z,13967
2018-06-25T05:04:32.405Z,13997
2018-06-25T05:05:02.367Z,13883
2018-06-25T05:05:32.531Z,13703
2018-06-25T05:06:02.578Z,13600
2018-06-25T05:06:32.777Z,13700
2018-06-25T05:07:02.756Z,13910
2018-06-25T05:07:32.892Z,13763
2018-06-25T05:08:02.924Z,13753
2018-06-25T05:08:33.118Z,13830
2018-06-25T05:09:03.110Z,14173
2018-06-25T05:09:33.344Z,14267
2018-06-25T05:10:03.278Z,14330
2018-06-25T05:10:33.450Z,14530
2018-06-25T05:11:03.469Z,14740
2018-06-25T05:11:33.650Z,14800
2018-06-25T05:12:03.718Z,14793
2018-06-25T05:12:33.916Z,14160
2018-06-25T05:13:03.877Z,13957
2018-06-25T05:13:34.065Z,13213
2018-06-25T05:14:04.099Z,12937
2018-06-25T05:14:34.218Z,13177
2018-06-25T05:15:04.570Z,12847
2018-06-25T05:15:34.836Z,12867
2018-06-25T05:16:04.858Z,14000
2018-06-25T05:16:35.007Z,14400
2018-06-25T05:17:05.035Z,14643
2018-06-25T05:17:35.287Z,14987
2018-06-25T05:18:05.209Z,15303
2018-06-25T05:18:35.401Z,15423
2018-06-25T05:19:05.439Z,15697
2018-06-25T05:19:35.578Z,16053
2018-06-25T05:20:05.632Z,16663
2018-06-25T05:20:35.743Z,17267
2018-06-25T05:21:05.848Z,17750
2018-06-25T05:21:35.930Z,18143
2018-06-25T05:22:05.965Z,18127
2018-06-25T05:22:36.210Z,18427
2018-06-25T05:23:06.189Z,18850
2018-06-25T05:23:36.409Z,19887
2018-06-25T05:24:06.393Z,20593
2018-06-25T05:24:36.571Z,20660
2018-06-25T05:25:06.572Z,20517
2018-06-25T05:25:36.713Z,20670
2018-06-25T05:26:06.770Z,20610
2018-06-25T05:26:36.931Z,20927
2018-06-25T05:27:06.942Z,20640
2018-06-25T05:27:37.121Z,20913
2018-06-25T05:28:07.145Z,20323
2018-06-25T05:28:37.332Z,19483
2018-06-25T05:29:07.337Z,18703
2018-06-25T05:29:37.480Z,18813
2018-06-25T05:30:07.521Z,19483
2018-06-25T05:30:37.613Z,19923
2018-06-25T05:31:07.712Z,20470
2018-06-25T05:31:37.808Z,21250
2018-06-25T05:32:07.825Z,21597
2018-06-25T05:32:38.003Z,21307
2018-06-25T05:33:08.012Z,20993
2018-06-25T05:33:38.182Z,20873
2018-06-25T05:34:08.243Z,20897
2018-06-25T05:34:38.428Z,21310
2018-06-25T05:35:08.411Z,21790
2018-06-25T05:35:38.625Z,21957
2018-06-25T05:36:08.582Z,22137
2018-06-25T05:36:38.741Z,22320
2018-06-25T05:37:08.828Z,22780
2018-06-25T05:37:38.897Z,23210
2018-06-25T05:38:08.919Z,23833
2018-06-25T05:38:39.107Z,24560
2018-06-25T05:39:09.101Z,25403
2018-06-25T05:39:39.277Z,25967
2018-06-25T05:40:09.316Z,25343
2018-06-25T05:40:39.470Z,28327
2018-06-25T05:41:09.534Z,29350
2018-06-25T05:41:39.661Z,29890
2018-06-25T05:42:09.744Z,30027
2018-06-25T05:42:40.392Z,30500
2018-06-25T05:43:09.894Z,30953
2018-06-25T05:43:40.063Z,31547
2018-06-25T05:44:10.119Z,31840
2018-06-25T05:44:40.296Z,31687
2018-06-25T05:45:10.292Z,31437
2018-06-25T05:45:40.423Z,31530
2018-06-25T05:46:10.496Z,30950
2018-06-25T05:46:40.674Z,30530
2018-06-25T05:47:10.643Z,30080
2018-06-25T05:47:40.842Z,29650
2018-06-25T05:48:10.825Z,29567
2018-06-25T05:48:41.019Z,29770
2018-06-25T05:49:11.037Z,30920
2018-06-25T05:49:41.285Z,31580
2018-06-25T05:50:11.287Z,31697
2018-06-25T05:50:41.438Z,30927
2018-06-25T05:51:11.428Z,29383
2018-06-25T05:51:41.575Z,29197
2018-06-25T05:52:11.610Z,29073
2018-06-25T05:52:42.011Z,29523
2018-06-25T05:53:11.777Z,29630
2018-06-25T05:53:41.967Z,29437
2018-06-25T05:54:12.066Z,29590
2018-06-25T05:54:42.121Z,29870
2018-06-25T05:55:12.239Z,30440
2018-06-25T05:55:42.543Z,30697
2018-06-25T05:56:12.537Z,30947
2018-06-25T05:56:42.606Z,31400
2018-06-25T05:57:12.599Z,32553
2018-06-25T05:57:42.687Z,33303
2018-06-25T05:58:12.704Z,33570
2018-06-25T05:58:42.734Z,33313
2018-06-25T05:59:12.727Z,34307
2018-06-25T05:59:42.816Z,33897
2018-06-25T06:00:12.820Z,33220
2018-06-25T06:00:42.846Z,34657
2018-06-25T06:01:13.019Z,36010
2018-06-25T06:01:42.920Z,36587
2018-06-25T06:02:12.908Z,36690
2018-06-25T06:02:43.025Z,37260
2018-06-25T06:03:12.987Z,38333
2018-06-25T06:03:43.050Z,39433
2018-06-25T06:04:13.028Z,40507
2018-06-25T06:04:43.135Z,40323
2018-06-25T06:05:13.103Z,38863
2018-06-25T06:05:43.151Z,34683
2018-06-25T06:06:13.152Z,37537
2018-06-25T06:06:43.216Z,39027
2018-06-25T06:07:13.226Z,39133
2018-06-25T06:07:43.311Z,38387
2018-06-25T06:08:13.279Z,38560
2018-06-25T06:08:43.327Z,39747
2018-06-25T06:09:13.482Z,40913
2018-06-25T06:09:43.399Z,41477
2018-06-25T06:10:13.437Z,41323
2018-06-25T06:10:43.469Z,41240
2018-06-25T06:11:13.490Z,41320
2018-06-25T06:11:43.517Z,41813
2018-06-25T06:12:13.568Z,42667
2018-06-25T06:12:43.592Z,43583
2018-06-25T06:13:13.674Z,44053
2018-06-25T06:13:43.617Z,44953
2018-06-25T06:14:13.709Z,45627
2018-06-25T06:14:43.753Z,46283
2018-06-25T06:15:13.720Z,46970
2018-06-25T06:15:43.745Z,46930
2018-06-25T06:16:13.926Z,45430
2018-06-25T06:16:43.831Z,42873
2018-06-25T06:17:13.858Z,40697
2018-06-25T06:17:43.862Z,39750
2018-06-25T06:18:13.917Z,39527
2018-06-25T06:18:43.959Z,39600
2018-06-25T06:19:13.960Z,40113
2018-06-25T06:19:43.987Z,40313
2018-06-25T06:20:14.073Z,40357
2018-06-25T06:20:44.051Z,40113
2018-06-25T06:21:14.122Z,39777
2018-06-25T06:21:44.108Z,38847
2018-06-25T06:22:14.159Z,37893
2018-06-25T06:22:44.201Z,37220
2018-06-25T06:23:14.323Z,38233
2018-06-25T06:23:44.245Z,39877
2018-06-25T06:24:14.264Z,42250
2018-06-25T06:24:44.343Z,45220
2018-06-25T06:25:14.393Z,47363
2018-06-25T06:25:44.437Z,47990
2018-06-25T06:26:14.406Z,47217
2018-06-25T06:26:44.461Z,43200
2018-06-25T06:27:14.536Z,45227
2018-06-25T06:27:44.552Z,45787
2018-06-25T06:28:14.549Z,45873
2018-06-25T06:28:44.585Z,48487
2018-06-25T06:29:14.597Z,50990
2018-06-25T06:29:44.703Z,53830
2018-06-25T06:30:14.642Z,54213
2018-06-25T06:30:44.719Z,54240
2018-06-25T06:31:14.697Z,54243
2018-06-25T06:31:44.724Z,52893
2018-06-25T06:32:14.774Z,50857
2018-06-25T06:32:44.792Z,49753
2018-06-25T06:33:14.845Z,49963
2018-06-25T06:33:44.858Z,49073
2018-06-25T06:34:14.883Z,47293
2018-06-25T06:34:44.921Z,46303
2018-06-25T06:35:14.949Z,45400
2018-06-25T06:35:44.972Z,45183
2018-06-25T06:36:15.014Z,45000
2018-06-25T06:36:45.035Z,44707
2018-06-25T06:37:15.075Z,43867
2018-06-25T06:37:45.139Z,41700
2018-06-25T06:38:15.137Z,39023
2018-06-25T06:38:45.204Z,36940
2018-06-25T06:39:15.198Z,34463
2018-06-25T06:39:45.366Z,34567
2018-06-25T06:40:15.265Z,34600
2018-06-25T06:40:45.328Z,34860
2018-06-25T06:41:15.343Z,36447
2018-06-25T06:41:45.390Z,37197
2018-06-25T06:42:15.429Z,35787
2018-06-25T06:42:45.429Z,32743
2018-06-25T06:43:15.489Z,30897
2018-06-25T06:43:45.506Z,30493
2018-06-25T06:44:15.536Z,30113
2018-06-25T06:44:45.577Z,29550
2018-06-25T06:45:15.624Z,29890
2018-06-25T06:45:45.676Z,30860
2018-06-25T06:46:15.746Z,31707
2018-06-25T06:46:45.719Z,32647
2018-06-25T06:47:15.722Z,33910
2018-06-25T06:47:45.788Z,35630
2018-06-25T06:48:15.826Z,36517
2018-06-25T06:48:45.790Z,35183
2018-06-25T06:49:15.852Z,35460
2018-06-25T06:49:45.856Z,38953
2018-06-25T06:50:15.931Z,40867
2018-06-25T06:50:46.001Z,41277
2018-06-25T06:51:15.995Z,41543
2018-06-25T06:51:45.991Z,42300
2018-06-25T06:52:16.041Z,43320
2018-06-25T06:52:46.074Z,45467
2018-06-25T06:53:16.111Z,47190
2018-06-25T06:53:46.148Z,43743
2018-06-25T06:54:16.170Z,37657
2018-06-25T06:54:46.146Z,44773
2018-06-25T06:55:16.238Z,47580
2018-06-25T06:55:46.268Z,48057
2018-06-25T06:56:16.240Z,48447
2018-06-25T06:56:46.338Z,46523
2018-06-25T06:57:16.356Z,43400
2018-06-25T06:57:46.398Z,40627
2018-06-25T06:58:16.455Z,39187
2018-06-25T06:58:46.450Z,38387
2018-06-25T06:59:16.438Z,40150
2018-06-25T06:59:46.480Z,46270
2018-06-25T07:00:16.515Z,55300
2018-06-25T07:00:46.553Z,63310
2018-06-25T07:01:16.547Z,67383
2018-06-25T07:01:46.610Z,65730
2018-06-25T07:02:17.283Z,58220
2018-06-25T07:02:47.304Z,50600
2018-06-25T07:03:17.300Z,43760
2018-06-25T07:03:47.358Z,39317
2018-06-25T07:04:17.432Z,37933
2018-06-25T07:04:47.494Z,39453
2018-06-25T07:05:17.414Z,43253
2018-06-25T07:05:47.470Z,46590
2018-06-25T07:06:17.480Z,47717
2018-06-25T07:06:47.581Z,45587
2018-06-25T07:07:17.548Z,42267
2018-06-25T07:07:47.625Z,38973
2018-06-25T07:08:17.684Z,36543
2018-06-25T07:08:47.622Z,35710
2018-06-25T07:09:17.702Z,35693
2018-06-25T07:09:47.684Z,35590
2018-06-25T07:10:17.791Z,35637
2018-06-25T07:10:47.748Z,35873
2018-06-25T07:11:17.779Z,36520
2018-06-25T07:11:47.829Z,37453
2018-06-25T07:12:18.119Z,38563
2018-06-25T07:12:48.165Z,40050
2018-06-25T07:13:18.228Z,41767
2018-06-25T07:13:48.198Z,43853
2018-06-25T07:14:18.296Z,45767
2018-06-25T07:14:48.308Z,48000
2018-06-25T07:15:18.291Z,49700
2018-06-25T07:15:48.356Z,50357
2018-06-25T07:16:18.375Z,51420
2018-06-25T07:16:48.412Z,53497
2018-06-25T07:17:18.433Z,55187
2018-06-25T07:17:48.632Z,55703
2018-06-25T07:18:18.538Z,55567
2018-06-25T07:18:48.527Z,54313
2018-06-25T07:19:18.592Z,52110
2018-06-25T07:19:48.616Z,49770
2018-06-25T07:20:18.633Z,47757
2018-06-25T07:20:48.709Z,46070
2018-06-25T07:21:18.701Z,45003
2018-06-25T07:21:48.724Z,44457
2018-06-25T07:22:18.770Z,44230
2018-06-25T07:22:48.823Z,44740
2018-06-25T07:23:18.855Z,46067
2018-06-25T07:23:48.837Z,47207
2018-06-25T07:24:18.914Z,48107
2018-06-25T07:24:48.962Z,48663
2018-06-25T07:25:18.959Z,48973
2018-06-25T07:25:49.034Z,48923
2018-06-25T07:26:19.012Z,48850
2018-06-25T07:26:49.040Z,48857
2018-06-25T07:27:19.067Z,48583
2018-06-25T07:27:49.125Z,47600
2018-06-25T07:28:19.122Z,46450
2018-06-25T07:28:49.239Z,45197
2018-06-25T07:29:19.198Z,44257
2018-06-25T07:29:49.205Z,43530
2018-06-25T07:30:19.265Z,43543
2018-06-25T07:30:49.295Z,47363
2018-06-25T07:31:19.286Z,54300
2018-06-25T07:31:49.383Z,61897
2018-06-25T07:32:19.338Z,66963
2018-06-25T07:32:49.434Z,69937
2018-06-25T07:33:19.404Z,60377
2018-06-25T07:33:49.471Z,63773
2018-06-25T07:34:19.492Z,60360
2018-06-25T07:34:49.535Z,62120
2018-06-25T07:35:19.534Z,125897
2018-06-25T07:35:49.595Z,59253
2018-06-25T07:36:19.605Z,75000
2018-06-25T07:36:49.821Z,62850
2018-06-25T07:37:19.658Z,63247
2018-06-25T07:37:49.682Z,61300
2018-06-25T07:38:19.717Z,57930
2018-06-25T07:38:49.749Z,111427
2018-06-25T07:39:19.804Z,124357
2018-06-25T07:39:49.818Z,106033
2018-06-25T07:40:19.839Z,72900
2018-06-25T07:40:49.924Z,71983
2018-06-25T07:41:19.894Z,60350
2018-06-25T07:41:49.930Z,58820
2018-06-25T07:42:19.961Z,58650
2018-06-25T07:42:49.989Z,60357
2018-06-25T07:43:20.035Z,69113
2018-06-25T07:43:50.054Z,54617
2018-06-25T07:44:20.157Z,51937
2018-06-25T07:44:50.128Z,47353
2018-06-25T07:45:20.201Z,46873
2018-06-25T07:45:50.188Z,51070
2018-06-25T07:46:20.259Z,52070
2018-06-25T07:46:50.268Z,54037
2018-06-25T07:47:20.548Z,55803
2018-06-25T07:47:50.338Z,60180
2018-06-25T07:48:20.348Z,69293
2018-06-25T07:48:50.402Z,82757
2018-06-25T07:49:20.414Z,112727
2018-06-25T07:49:50.469Z,109117
2018-06-25T07:50:20.453Z,89167
2018-06-25T07:50:50.514Z,64407
2018-06-25T07:51:20.523Z,58030
2018-06-25T07:51:50.604Z,54870
2018-06-25T07:52:20.602Z,51397
2018-06-25T07:52:50.619Z,50293
2018-06-25T07:53:20.682Z,50483
2018-06-25T07:53:50.671Z,51313
2018-06-25T07:54:20.800Z,53027
2018-06-25T07:54:50.737Z,54970
2018-06-25T07:55:20.769Z,57607
2018-06-25T07:55:50.797Z,60587
2018-06-25T07:56:20.829Z,62987
2018-06-25T07:56:50.859Z,106290
2018-06-25T07:57:20.896Z,101267
2018-06-25T07:57:50.914Z,49923
2018-06-25T07:58:20.970Z,50480
2018-06-25T07:58:50.976Z,52287
2018-06-25T07:59:21.061Z,53150
2018-06-25T07:59:51.054Z,52717
2018-06-25T08:00:21.340Z,51333
2018-06-25T08:00:51.138Z,49463
2018-06-25T08:01:21.170Z,47990
2018-06-25T08:01:51.206Z,47067
2018-06-25T08:02:21.242Z,44640
2018-06-25T08:02:51.223Z,41277
2018-06-25T08:03:22.019Z,37773
2018-06-25T08:03:52.081Z,36183
2018-06-25T08:04:22.329Z,37503
2018-06-25T08:04:52.123Z,39333
2018-06-25T08:05:22.196Z,43043
2018-06-25T08:05:52.148Z,47773
2018-06-25T08:06:22.191Z,52433
2018-06-25T08:06:52.182Z,55927
2018-06-25T08:07:22.262Z,59083
2018-06-25T08:07:52.331Z,88930
2018-06-25T08:08:22.316Z,55417
2018-06-25T08:08:52.459Z,49877
2018-06-25T08:09:22.441Z,47970
2018-06-25T08:09:52.476Z,47857
2018-06-25T08:10:22.943Z,48473
2018-06-25T08:10:52.954Z,49477
2018-06-25T08:11:22.990Z,50447
2018-06-25T08:11:53.024Z,52907
2018-06-25T08:12:23.073Z,59300
2018-06-25T08:12:53.154Z,57413
2018-06-25T08:13:23.112Z,61197
2018-06-25T08:13:53.170Z,71543
2018-06-25T08:14:23.229Z,102873
2018-06-25T08:14:53.265Z,155590
2018-06-25T08:15:23.362Z,78160
2018-06-25T08:15:53.300Z,70590
2018-06-25T08:16:23.466Z,77603
2018-06-25T08:16:53.384Z,69697
2018-06-25T08:17:23.388Z,66403
2018-06-25T08:17:53.430Z,63187
2018-06-25T08:18:23.444Z,59687
2018-06-25T08:18:53.531Z,56637
2018-06-25T08:19:23.582Z,52580
2018-06-25T08:19:53.553Z,43703
2018-06-25T08:20:23.640Z,42510
2018-06-25T08:20:53.588Z,46060
2018-06-25T08:21:23.673Z,46850
2018-06-25T08:21:53.643Z,45440
2018-06-25T08:22:23.776Z,42213
2018-06-25T08:22:53.706Z,36240
2018-06-25T08:23:23.738Z,34517
2018-06-25T08:23:53.762Z,42420
2018-06-25T08:24:23.818Z,46530
2018-06-25T08:24:53.827Z,48580
2018-06-25T08:25:23.855Z,51047
2018-06-25T08:25:53.880Z,53733
2018-06-25T08:26:23.936Z,55480
2018-06-25T08:26:53.945Z,58820
2018-06-25T08:27:23.980Z,58487
2018-06-25T08:27:54.012Z,57430
2018-06-25T08:28:24.069Z,58773
2018-06-25T08:28:54.082Z,55723
2018-06-25T08:29:24.173Z,54750
2018-06-25T08:29:54.256Z,55260
2018-06-25T08:30:24.220Z,54797
2018-06-25T08:30:54.196Z,48570
2018-06-25T08:31:24.248Z,47337
2018-06-25T08:31:54.277Z,48390
2018-06-25T08:32:24.329Z,49663
2018-06-25T08:32:54.353Z,55070
2018-06-25T08:33:24.375Z,59453
2018-06-25T08:33:54.539Z,67063
2018-06-25T08:34:24.649Z,81993
2018-06-25T08:34:54.449Z,202750
2018-06-25T08:35:24.526Z,154333
2018-06-25T08:35:54.553Z,176073
2018-06-25T08:36:24.571Z,124093
2018-06-25T08:36:54.685Z,88747
2018-06-25T08:37:24.687Z,101480
2018-06-25T08:37:54.649Z,151470
2018-06-25T08:38:24.672Z,105387
2018-06-25T08:38:54.743Z,105813
2018-06-25T08:39:24.841Z,89877
2018-06-25T08:39:54.810Z,66203
2018-06-25T08:40:24.826Z,52197
2018-06-25T08:40:54.874Z,41570
2018-06-25T08:41:24.893Z,36467
2018-06-25T08:41:54.894Z,33230
2018-06-25T08:42:24.963Z,35440
2018-06-25T08:42:55.235Z,38380
2018-06-25T08:43:25.351Z,39030
2018-06-25T08:43:55.372Z,39717
2018-06-25T08:44:25.357Z,40553
2018-06-25T08:44:55.421Z,42020
2018-06-25T08:45:25.426Z,44727
2018-06-25T08:45:55.547Z,50160
2018-06-25T08:46:25.478Z,57580
2018-06-25T08:46:55.500Z,64547
2018-06-25T08:47:25.504Z,63940
2018-06-25T08:47:55.593Z,65037
2018-06-25T08:48:25.568Z,64220
2018-06-25T08:48:55.608Z,66787
2018-06-25T08:49:25.686Z,75887
2018-06-25T08:49:55.727Z,82807
2018-06-25T08:50:25.692Z,89027
2018-06-25T08:50:55.712Z,108203
2018-06-25T08:51:25.757Z,81067
2018-06-25T08:51:55.853Z,81250
2018-06-25T08:52:25.855Z,83193
2018-06-25T08:52:55.831Z,69740
2018-06-25T08:53:25.904Z,69960
2018-06-25T08:53:55.898Z,70983
2018-06-25T08:54:26.001Z,75237
2018-06-25T08:54:56.037Z,79363
2018-06-25T08:55:26.064Z,117203
2018-06-25T08:55:56.020Z,89490
2018-06-25T08:56:26.480Z,76420
2018-06-25T08:56:56.103Z,77590
2018-06-25T08:57:26.142Z,84430
2018-06-25T08:57:56.164Z,91587
2018-06-25T08:58:26.204Z,112877
2018-06-25T08:58:56.276Z,172957
2018-06-25T08:59:26.246Z,168873
2018-06-25T08:59:56.540Z,185580
2018-06-25T09:00:26.359Z,107023
2018-06-25T09:00:56.360Z,105463
2018-06-25T09:01:26.386Z,104210
2018-06-25T09:01:56.402Z,88003
2018-06-25T09:02:26.493Z,84920
2018-06-25T09:02:56.503Z,74650
2018-06-25T09:03:26.551Z,62690
2018-06-25T09:03:56.571Z,57057